Time;durP1;ratioP1;P1;durP2;ratioP2;P2;SDS_P1;SDS_P2;PMS_P1;PMS_P2;Temp;Humidity;BMP_temperature;BMP_pressure;BME280_temperature;BME280_humidity;BME280_pressure;Samples;Min_cycle;Max_cycle;Signal;HPM_P1;HPM_P2
2022/03/21 00:02:01;;;;;;;42.30;20.80;;;;;;;-1.03;49.06;100753.80;105903;1278;22567;-74
2022/03/21 00:04:28;;;;;;;44.10;19.60;;;;;;;-1.09;49.36;100754.04;105846;1277;138323;-77
2022/03/21 00:06:54;;;;;;;39.90;19.50;;;;;;;-1.13;49.37;100754.34;105842;1278;24383;-75
2022/03/21 00:09:23;;;;;;;44.20;19.40;;;;;;;-1.17;49.52;100757.27;105935;1277;23376;-75
2022/03/21 00:11:53;;;;;;;39.20;18.80;;;;;;;-1.19;49.71;100755.52;105796;1278;137902;-75
2022/03/21 00:14:34;;;;;;;40.10;19.40;;;;;;;-1.23;49.79;100755.56;105918;1278;24299;-76
2022/03/21 00:17:00;;;;;;;39.80;18.90;;;;;;;-1.25;49.84;100751.80;105778;1278;138487;-76
2022/03/21 00:19:29;;;;;;;41.40;18.90;;;;;;;-1.26;49.82;100751.95;105798;1281;22569;-76
2022/03/21 00:21:56;;;;;;;;;;;;;;;-1.28;49.62;100746.15;105695;1278;138271;-76
2022/03/21 00:24:22;;;;;;;44.50;18.40;;;;;;;-1.29;49.61;100744.09;105690;1280;24227;-76
2022/03/21 00:26:48;;;;;;;37.00;18.90;;;;;;;-1.28;49.56;100742.98;105777;1277;23933;-76
2022/03/21 00:29:25;;;;;;;40.20;19.30;;;;;;;-1.27;49.76;100742.21;105784;1277;138220;-77
2022/03/21 00:32:07;;;;;;;38.60;17.60;;;;;;;-1.27;49.88;100738.98;105840;1278;24368;-77
2022/03/21 00:34:37;;;;;;;39.30;17.60;;;;;;;-1.27;49.72;100736.50;105645;1278;138367;-77
2022/03/21 00:37:04;;;;;;;33.40;17.60;;;;;;;-1.27;49.81;100735.55;105872;1278;29551;-77
2022/03/21 00:39:30;;;;;;;42.40;20.10;;;;;;;-1.26;49.94;100733.52;105806;1278;138220;-77
2022/03/21 00:41:57;;;;;;;38.90;18.80;;;;;;;-1.24;49.79;100733.05;105940;1277;25362;-79
2022/03/21 00:44:27;;;;;;;37.70;17.20;;;;;;;-1.24;49.86;100729.81;105772;1278;22700;-77
2022/03/21 00:46:53;;;;;;;41.00;18.70;;;;;;;-1.21;49.97;100726.42;105866;1280;138408;-78
2022/03/21 00:49:20;;;;;;;36.20;17.40;;;;;;;-1.20;49.97;100727.56;105707;1280;24322;-78
2022/03/21 00:51:46;;;;;;;38.10;17.80;;;;;;;-1.18;50.21;100728.84;105598;1278;138876;-78
2022/03/21 00:54:12;;;;;;;34.10;16.50;;;;;;;-1.18;50.43;100727.63;105684;1281;25265;-78
2022/03/21 00:56:38;;;;;;;42.50;16.90;;;;;;;-1.18;50.31;100727.61;105809;1277;24358;-79
2022/03/21 00:59:05;;;;;;;33.00;15.70;;;;;;;-1.19;50.28;100724.83;105821;1278;138041;-79
2022/03/21 01:01:32;;;;;;;34.00;15.90;;;;;;;-1.21;50.25;100724.94;105968;1277;22628;-79
2022/03/21 01:03:58;;;;;;;40.50;17.80;;;;;;;-1.20;50.17;100726.85;105832;1278;138355;-79
2022/03/21 01:06:24;;;;;;;38.10;17.70;;;;;;;-1.18;50.00;100727.40;105939;1278;22628;-79
2022/03/21 01:08:50;;;;;;;39.40;18.40;;;;;;;-1.17;50.18;100724.89;106007;1277;23175;-79
2022/03/21 01:11:17;;;;;;;36.40;17.50;;;;;;;-1.18;50.18;100718.51;105867;1278;138238;-79
2022/03/21 01:13:43;;;;;;;36.30;19.00;;;;;;;-1.20;50.25;100720.23;105797;1278;23402;-79
2022/03/21 01:16:10;;;;;;;40.30;19.30;;;;;;;-1.22;49.89;100716.83;105694;1280;138429;-79
2022/03/21 01:18:36;;;;;;;42.10;20.90;;;;;;;-1.25;50.13;100714.06;105939;1278;25273;-79
2022/03/21 01:21:17;;;;;;;49.50;22.60;;;;;;;-1.30;50.58;100712.44;105890;1277;22570;-79
2022/03/21 01:23:43;;;;;;;43.00;20.60;;;;;;;-1.38;51.13;100709.23;105897;1277;137901;-79
2022/03/21 01:26:10;;;;;;;49.30;22.80;;;;;;;-1.45;51.48;100713.34;105842;1278;22570;-79
2022/03/21 01:28:36;;;;;;;51.40;22.90;;;;;;;-1.53;51.96;100717.81;105947;1278;138543;-78
2022/03/21 01:31:02;;;;;;;39.60;20.20;;;;;;;-1.58;51.69;100714.13;105991;1277;22722;-78
2022/03/21 01:33:31;;;;;;;40.30;17.90;;;;;;;-1.59;51.32;100708.48;105869;1277;138823;-78
2022/03/21 01:35:57;;;;;;;34.90;18.90;;;;;;;-1.56;50.81;100710.93;105902;1277;22609;-77
2022/03/21 01:38:24;;;;;;;33.70;16.10;;;;;;;-1.52;50.72;100705.84;105958;1277;22724;-77
2022/03/21 01:40:51;;;;;;;40.20;17.50;;;;;;;-1.47;50.51;100706.74;105769;1277;138559;-77
2022/03/21 01:43:17;;;;;;;34.10;17.00;;;;;;;-1.42;50.36;100702.07;105866;1277;22631;-77
2022/03/21 01:45:43;;;;;;;33.10;16.50;;;;;;;-1.36;50.09;100701.30;105762;1277;138364;-77
2022/03/21 01:48:24;;;;;;;36.40;17.00;;;;;;;-1.32;50.11;100702.60;105889;1277;29249;-77
2022/03/21 01:50:50;;;;;;;36.50;17.40;;;;;;;-1.27;50.22;100703.48;105754;1278;22550;-77
2022/03/21 01:56:02;;;;;;;35.90;16.70;;;;;;;-1.24;50.22;100697.26;105864;1277;22773;-77
2022/03/21 01:58:30;;;;;;;37.60;17.50;;;;;;;-1.23;50.07;100696.05;105732;1278;138221;-77
2022/03/21 02:00:56;;;;;;;38.50;18.50;;;;;;;-1.20;49.81;100697.84;105839;1278;22545;-77
2022/03/21 02:03:22;;;;;;;37.80;17.40;;;;;;;-1.18;49.93;100693.36;105800;1279;22651;-77
2022/03/21 02:05:49;;;;;;;36.30;17.60;;;;;;;-1.15;49.77;100692.47;105884;1278;138025;-77
2022/03/21 02:08:15;;;;;;;43.40;19.20;;;;;;;-1.13;49.70;100686.23;105871;1277;22746;-77
2022/03/21 02:10:43;;;;;;;36.40;17.60;;;;;;;-1.12;49.87;100686.36;105772;1278;138346;-77
2022/03/21 02:13:10;;;;;;;39.80;18.50;;;;;;;-1.13;49.91;100693.77;105967;1278;22562;-77
2022/03/21 02:15:37;;;;;;;54.00;24.60;;;;;;;-1.17;50.47;100698.52;105791;1278;138218;-77
2022/03/21 02:18:04;;;;;;;59.10;25.20;;;;;;;-1.29;51.47;100702.02;105817;1277;25372;-77
2022/03/21 02:20:35;;;;;;;54.90;24.40;;;;;;;-1.43;52.02;100702.35;105768;1278;22594;-77
2022/03/21 02:23:11;;;;;;;47.00;21.00;;;;;;;-1.57;52.29;100703.39;105669;1278;139325;-77
2022/03/21 02:25:43;;;;;;;49.90;22.80;;;;;;;-1.72;52.55;100702.31;105920;1278;22951;-77
2022/03/21 02:28:15;;;;;;;50.40;22.90;;;;;;;-1.81;52.84;100707.05;105748;1278;138290;-77
2022/03/21 02:30:47;;;;;;;46.20;20.60;;;;;;;-1.90;52.93;100700.77;105910;1278;22573;-77
2022/03/21 02:33:18;;;;;;;50.60;21.20;;;;;;;-1.97;53.03;100710.13;105964;1277;25315;-77
2022/03/21 02:35:47;;;;;;;47.30;22.30;;;;;;;-2.02;53.08;100706.60;105839;1277;138627;-76
2022/03/21 02:38:15;;;;;;;;;;;;;;;-2.06;53.23;100706.34;105963;1280;25299;-76
2022/03/21 02:40:42;;;;;;;41.20;18.90;;;;;;;-2.10;53.77;100712.83;105773;1280;124924;-75
2022/03/21 02:43:08;;;;;;;38.70;19.20;;;;;;;-2.14;54.03;100713.31;105693;1280;22548;-75
2022/03/21 02:45:34;;;;;;;41.60;19.10;;;;;;;-2.18;53.55;100716.23;105851;1280;138770;-75
2022/03/21 02:48:01;;;;;;;45.50;19.70;;;;;;;-2.21;53.50;100720.36;105788;1280;24325;-75
2022/03/21 02:50:49;;;;;;;44.70;19.80;;;;;;;-2.24;53.45;100717.94;105755;1280;22594;-74
2022/03/21 02:53:18;;;;;;;40.50;18.70;;;;;;;-2.28;53.17;100716.73;105508;1277;138742;-74
2022/03/21 02:55:45;;;;;;;40.20;19.40;;;;;;;-2.30;53.35;100721.19;105829;1278;24358;-74
2022/03/21 02:58:11;;;;;;;44.10;18.60;;;;;;;-2.32;53.44;100720.06;105728;1277;138735;-74
2022/03/21 03:00:37;;;;;;;38.50;19.80;;;;;;;-2.35;53.57;100720.46;105689;1278;24265;-74
2022/03/21 03:03:18;;;;;;;44.80;19.80;;;;;;;-2.38;53.38;100719.54;105933;1277;23920;-74
2022/03/21 03:05:44;;;;;;;36.10;17.20;;;;;;;-2.40;53.13;100717.95;105780;1277;138582;-73
2022/03/21 03:08:10;;;;;;;48.10;20.40;;;;;;;-2.42;53.22;100717.04;106144;1277;25276;-73
2022/03/21 03:10:37;;;;;;;43.70;19.70;;;;;;;-2.44;53.67;100720.21;105805;1277;138952;-73
2022/03/21 03:13:03;;;;;;;39.20;19.00;;;;;;;-2.47;53.63;100718.44;105850;1278;22567;-73
2022/03/21 03:15:29;;;;;;;42.80;19.20;;;;;;;-2.50;53.87;100717.02;105746;1277;138692;-73
2022/03/21 03:17:56;;;;;;;35.00;17.80;;;;;;;-2.52;53.75;100718.92;105781;1277;22624;-73
2022/03/21 03:20:22;;;;;;;38.70;18.50;;;;;;;-2.55;53.61;100717.53;105822;1277;22645;-73
2022/03/21 03:22:49;;;;;;;44.50;19.70;;;;;;;-2.57;53.85;100718.33;105829;1277;138061;-76
2022/03/21 03:25:15;;;;;;;40.20;19.50;;;;;;;-2.59;53.80;100715.52;105942;1278;25330;-74
2022/03/21 03:27:41;;;;;;;39.30;18.20;;;;;;;-2.61;53.97;100717.27;105753;1277;138258;-74
2022/03/21 03:30:08;;;;;;;41.50;18.40;;;;;;;-2.63;54.01;100715.23;105923;1277;24273;-75
2022/03/21 03:32:35;;;;;;;48.70;19.30;;;;;;;-2.65;54.12;100716.45;106003;1277;22573;-75
2022/03/21 03:35:02;;;;;;;42.60;18.70;;;;;;;-2.67;54.30;100720.12;105775;1277;138073;-74
2022/03/21 03:37:43;;;;;;;38.60;18.40;;;;;;;-2.69;54.28;100719.54;105820;1278;25147;-74
2022/03/21 03:40:10;;;;;;;43.20;19.70;;;;;;;-2.70;53.97;100720.17;105932;1278;138289;-72
2022/03/21 03:42:36;;;;;;;38.60;18.50;;;;;;;-2.71;54.24;100723.44;105772;1278;26507;-72
2022/03/21 03:45:03;;;;;;;43.50;20.50;;;;;;;-2.73;53.99;100724.05;105795;1277;25451;-73
2022/03/21 03:47:30;;;;;;;38.70;18.10;;;;;;;-2.73;54.32;100725.88;105495;1280;138195;-75
2022/03/21 03:49:58;;;;;;;44.10;20.90;;;;;;;-2.75;54.28;100719.39;105220;1281;22711;-74
2022/03/21 03:52:24;;;;;;;40.50;18.50;;;;;;;-2.76;54.15;100718.63;105708;1280;138883;-73
2022/03/21 03:55:06;;;;;;;45.20;19.30;;;;;;;-2.78;54.57;100717.50;105742;1278;25480;-74
2022/03/21 03:57:32;;;;;;;46.60;19.60;;;;;;;-2.81;55.34;100713.09;105425;1280;139065;-74
2022/03/21 03:59:59;;;;;;;42.20;19.20;;;;;;;-2.84;55.45;100719.15;105983;1277;25461;-74
2022/03/21 04:02:25;;;;;;;40.90;19.00;;;;;;;-2.87;54.85;100720.75;105725;1278;22554;-74
2022/03/21 04:04:51;;;;;;;43.70;19.90;;;;;;;-2.89;55.22;100726.88;105614;1278;138204;-71
2022/03/21 04:07:19;;;;;;;49.30;20.90;;;;;;;-2.90;55.23;100726.08;105749;1278;22560;-72
2022/03/21 04:09:45;;;;;;;49.00;22.00;;;;;;;-2.92;55.74;100723.73;105771;1277;138608;-72
2022/03/21 04:12:12;;;;;;;44.20;20.20;;;;;;;-2.96;55.82;100719.55;105919;1278;22717;-72
2022/03/21 04:14:38;;;;;;;46.70;20.80;;;;;;;-3.00;55.55;100723.20;106040;1277;22550;-72
2022/03/21 04:17:04;;;;;;;46.50;20.30;;;;;;;-3.03;55.63;100725.73;105966;1277;138561;-72
2022/03/21 04:19:30;;;;;;;51.50;21.10;;;;;;;-3.06;55.57;100724.15;106102;1277;22584;-72
2022/03/21 04:21:57;;;;;;;43.30;19.70;;;;;;;-3.09;55.78;100723.29;105891;1279;138888;-72
2022/03/21 04:24:23;;;;;;;51.10;20.70;;;;;;;-3.11;56.15;100724.47;105879;1278;22551;-72
2022/03/21 04:26:49;;;;;;;45.90;19.30;;;;;;;-3.13;56.49;100726.22;106008;1277;22749;-72
2022/03/21 04:29:15;;;;;;;45.60;18.60;;;;;;;-3.15;55.92;100727.58;105694;1279;138920;-72
2022/03/21 04:31:41;;;;;;;46.00;18.50;;;;;;;-3.16;55.90;100729.80;105916;1277;26326;-72
2022/03/21 04:34:08;;;;;;;39.30;18.20;;;;;;;-3.17;56.23;100729.14;105927;1279;138221;-72
2022/03/21 04:36:34;;;;;;;46.10;19.50;;;;;;;-3.17;56.01;100733.79;106077;1277;24252;-72
2022/03/21 04:39:00;;;;;;;41.60;20.40;;;;;;;-3.19;56.25;100730.89;105969;1277;22704;-72
2022/03/21 04:41:26;;;;;;;39.70;19.50;;;;;;;-3.21;56.51;100733.31;105764;1280;138069;-72
2022/03/21 04:43:53;;;;;;;41.60;19.30;;;;;;;-3.23;56.79;100733.59;105898;1277;24224;-72
2022/03/21 04:46:19;;;;;;;45.80;20.10;;;;;;;-3.25;56.89;100735.14;105700;1277;138759;-72
2022/03/21 04:48:45;;;;;;;45.00;20.20;;;;;;;-3.26;56.71;100735.05;106210;1277;22963;-72
2022/03/21 04:51:11;;;;;;;46.90;20.20;;;;;;;-3.27;56.90;100738.28;105553;1280;23035;-72
2022/03/21 04:53:38;;;;;;;41.00;18.50;;;;;;;-3.28;56.94;100734.99;105542;1281;138813;-72
2022/03/21 04:56:04;;;;;;;49.70;18.90;;;;;;;-3.28;56.82;100738.59;105662;1280;22609;-72
2022/03/21 04:58:30;;;;;;;43.30;17.90;;;;;;;-3.29;56.71;100739.86;105851;1280;138121;-72
2022/03/21 05:00:56;;;;;;;40.20;18.10;;;;;;;-3.28;57.01;100746.38;105630;1277;24303;-72
2022/03/21 05:03:23;;;;;;;45.20;18.60;;;;;;;-3.28;56.74;100747.56;105886;1277;22572;-72
2022/03/21 05:05:50;;;;;;;39.80;18.20;;;;;;;-3.28;56.39;100748.11;105801;1278;137858;-72
2022/03/21 05:08:16;;;;;;;44.20;18.00;;;;;;;-3.26;56.57;100744.45;105841;1279;24962;-72
2022/03/21 05:10:57;;;;;;;51.90;21.30;;;;;;;-3.24;57.19;100743.98;105655;1280;138582;-72
2022/03/21 05:13:23;;;;;;;50.50;23.30;;;;;;;-3.25;57.29;100744.20;105897;1278;24322;-72
2022/03/21 05:15:49;;;;;;;46.20;21.20;;;;;;;-3.25;57.81;100746.52;105880;1278;138469;-72
2022/03/21 05:18:16;;;;;;;50.90;21.00;;;;;;;-3.25;57.42;100747.91;105879;1278;22666;-72
2022/03/21 05:20:44;;;;;;;43.80;20.90;;;;;;;-3.23;57.54;100750.50;105999;1277;24951;-71
2022/03/21 05:31:27;;;;;;;41.80;18.50;;;;;;;-3.10;57.51;100762.96;106032;1277;25435;-72
2022/03/21 05:36:38;;;;;;;41.00;18.90;;;;;;;-3.02;57.93;100763.36;105743;1278;23021;-72
2022/03/21 05:39:04;;;;;;;41.50;17.80;;;;;;;-2.98;57.92;100758.83;105922;1278;22560;-71
2022/03/21 05:41:31;;;;;;;37.10;16.30;;;;;;;-2.93;57.34;100765.25;106027;1277;138142;-72
2022/03/21 05:43:57;;;;;;;45.90;20.20;;;;;;;-2.88;58.02;100769.69;106160;1278;22551;-72
2022/03/21 05:46:23;;;;;;;34.20;17.60;;;;;;;-2.82;57.77;100765.23;106065;1277;138031;-72
2022/03/21 05:49:05;;;;;;;43.10;18.80;;;;;;;-2.77;58.23;100767.69;106070;1277;24313;-72
2022/03/21 05:51:46;;;;;;;35.00;17.30;;;;;;;-2.70;58.25;100768.84;105836;1277;138172;-72
2022/03/21 05:54:13;;;;;;;40.00;17.80;;;;;;;-2.63;58.31;100773.56;106033;1277;24087;-72
2022/03/21 05:56:41;;;;;;;39.40;17.60;;;;;;;-2.55;57.82;100776.60;105897;1278;24253;-72
2022/03/21 06:01:54;;;;;;;36.90;16.70;;;;;;;-2.37;57.78;100776.25;106280;1277;22569;-71
2022/03/21 06:04:23;;;;;;;41.80;20.00;;;;;;;-2.28;57.61;100781.35;105956;1277;138225;-71
2022/03/21 06:06:49;;;;;;;41.80;19.90;;;;;;;-2.19;57.44;100776.13;105922;1278;25304;-71
2022/03/21 06:09:15;;;;;;;42.40;19.10;;;;;;;-2.12;57.16;100780.02;105901;1277;24381;-71
2022/03/21 06:11:42;;;;;;;45.10;19.20;;;;;;;-2.02;57.00;100780.46;105858;1277;138474;-71
2022/03/21 06:14:09;;;;;;;46.40;21.80;;;;;;;-1.95;57.34;100778.69;105809;1277;22609;-74
2022/03/21 06:16:50;;;;;;;55.10;23.60;;;;;;;-1.88;57.79;100778.03;105733;1278;138107;-71
2022/03/21 06:19:18;;;;;;;49.90;26.30;;;;;;;-1.82;58.15;100779.38;105991;1277;22563;-72
2022/03/21 06:21:44;;;;;;;63.20;29.00;;;;;;;-1.78;58.23;100779.63;105752;1280;138509;-72
2022/03/21 06:24:13;;;;;;;51.90;24.30;;;;;;;-1.73;58.14;100781.77;106044;1278;25368;-71
2022/03/21 06:26:41;;;;;;;43.40;20.70;;;;;;;-1.66;57.80;100780.06;106144;1277;23542;-71
2022/03/21 06:29:22;;;;;;;42.70;20.20;;;;;;;-1.58;57.24;100781.76;105598;1279;138623;-71
2022/03/21 06:31:48;;;;;;;45.30;20.90;;;;;;;-1.48;57.24;100783.40;105877;1278;24295;-71
2022/03/21 06:34:14;;;;;;;49.10;21.10;;;;;;;-1.37;56.58;100781.74;105785;1278;138258;-71
2022/03/21 06:36:55;;;;;;;49.30;21.60;;;;;;;-1.25;55.99;100781.58;106167;1277;22727;-71
2022/03/21 06:39:21;;;;;;;45.60;20.30;;;;;;;-1.15;55.78;100784.93;106032;1277;24318;-71
2022/03/21 06:41:48;;;;;;;49.80;23.60;;;;;;;-1.03;55.73;100784.95;105937;1278;137866;-71
2022/03/21 06:44:15;;;;;;;52.00;23.10;;;;;;;-0.91;55.20;100783.55;105980;1277;25512;-72
2022/03/21 06:46:41;;;;;;;47.60;20.60;;;;;;;-0.79;55.09;100785.88;105873;1277;137950;-72
2022/03/21 06:49:07;;;;;;;41.60;20.00;;;;;;;-0.68;55.05;100780.60;106083;1277;22583;-72
2022/03/21 06:51:34;;;;;;;44.30;21.70;;;;;;;-0.55;54.68;100779.44;105898;1277;138101;-72
2022/03/21 06:54:00;;;;;;;46.30;20.50;;;;;;;-0.43;54.36;100779.77;106034;1277;24252;-72
2022/03/21 06:56:26;;;;;;;44.80;21.40;;;;;;;-0.28;54.40;100777.25;106189;1277;24249;-72
2022/03/21 06:58:53;;;;;;;45.30;22.30;;;;;;;-0.14;53.71;100778.86;105946;1278;137914;-72
2022/03/21 07:01:19;;;;;;;43.50;22.00;;;;;;;-0.02;53.37;100779.50;106023;1277;25251;-72
2022/03/21 07:03:46;;;;;;;46.90;22.60;;;;;;;0.12;53.52;100781.84;106100;1277;138381;-72
2022/03/21 07:06:12;;;;;;;45.90;23.00;;;;;;;0.25;53.02;100781.34;106196;1277;22580;-72
2022/03/21 07:08:39;;;;;;;48.60;22.70;;;;;;;0.38;52.59;100782.84;106244;1277;25380;-72
2022/03/21 07:11:12;;;;;;;42.00;22.70;;;;;;;0.51;52.55;100786.63;105926;1279;138212;-72
2022/03/21 07:13:39;;;;;;;43.10;21.70;;;;;;;0.64;51.86;100782.88;106286;1278;22730;-72
2022/03/21 07:16:06;;;;;;;46.30;22.00;;;;;;;0.77;51.65;100782.37;106332;1277;137856;-72
2022/03/21 07:18:32;;;;;;;43.30;20.50;;;;;;;0.90;51.47;100782.43;106246;1277;24274;-72
2022/03/21 07:20:58;;;;;;;42.20;21.10;;;;;;;1.01;51.18;100784.34;105997;1280;22630;-72
2022/03/21 07:23:25;;;;;;;47.70;21.10;;;;;;;1.14;51.25;100782.55;106216;1278;138537;-72
2022/03/21 07:25:51;;;;;;;42.60;20.70;;;;;;;1.26;50.92;100787.29;106135;1279;22719;-72
2022/03/21 07:28:17;;;;;;;41.80;20.50;;;;;;;1.40;50.40;100788.84;105977;1280;138226;-72
2022/03/21 07:30:44;;;;;;;47.10;22.20;;;;;;;1.55;49.66;100785.30;106342;1277;24307;-72
2022/03/21 07:33:12;;;;;;;39.20;20.60;;;;;;;1.70;49.32;100780.98;106449;1277;22717;-72
2022/03/21 07:35:38;;;;;;;39.80;20.60;;;;;;;1.82;49.11;100784.06;106573;1277;138364;-72
2022/03/21 07:38:07;;;;;;;37.70;19.60;;;;;;;1.92;48.93;100784.84;105793;1278;22704;-72
2022/03/21 07:40:33;;;;;;;41.50;20.90;;;;;;;2.04;48.86;100790.07;106096;1277;138162;-72
2022/03/21 07:42:59;;;;;;;39.30;19.20;;;;;;;2.17;48.21;100787.19;106258;1278;24320;-72
2022/03/21 07:48:11;;;;;;;36.20;19.10;;;;;;;2.44;47.70;100789.68;105779;1277;137618;-72
2022/03/21 07:50:38;;;;;;;37.00;18.60;;;;;;;2.57;47.16;100788.35;106233;1278;25326;-72
2022/03/21 07:53:05;;;;;;;39.30;19.30;;;;;;;2.71;46.86;100788.84;106067;1277;137859;-73
2022/03/21 07:55:31;;;;;;;34.70;17.40;;;;;;;2.86;46.48;100787.39;105838;1280;22579;-72
2022/03/21 07:58:02;;;;;;;35.80;18.40;;;;;;;2.99;46.23;100790.34;105879;1279;137804;-73
2022/03/21 08:00:30;;;;;;;36.20;18.80;;;;;;;3.12;45.92;100787.90;105977;1280;24208;-73
2022/03/21 08:02:58;;;;;;;30.50;17.10;;;;;;;3.25;45.34;100784.58;106421;1279;24226;-72
2022/03/21 08:05:26;;;;;;;25.90;15.20;;;;;;;3.39;45.22;100783.29;106298;1277;138011;-72
2022/03/21 08:07:53;;;;;;;34.50;17.00;;;;;;;3.52;44.74;100774.92;105821;1278;24404;-71
2022/03/21 08:10:19;;;;;;;30.00;17.00;;;;;;;3.63;44.53;100772.80;105750;1277;137891;-72
2022/03/21 08:12:46;;;;;;;30.40;16.00;;;;;;;3.75;43.88;100767.59;105858;1278;22579;-71
2022/03/21 08:15:14;;;;;;;33.70;17.80;;;;;;;3.86;43.43;100772.16;105389;1280;554106;-71
2022/03/21 08:18:01;;;;;;;35.10;17.60;;;;;;;3.98;43.28;100773.19;105917;1278;138429;-72
2022/03/21 08:20:35;;;;;;;34.10;17.70;;;;;;;4.11;43.19;100767.67;105911;1280;22638;-72
2022/03/21 08:23:05;;;;;;;32.40;16.20;;;;;;;4.23;43.14;100770.67;105813;1278;137651;-72
2022/03/21 08:25:33;;;;;;;32.50;17.00;;;;;;;4.35;43.07;100769.30;105815;1280;22669;-73
2022/03/21 08:27:59;;;;;;;26.70;15.20;;;;;;;4.48;43.00;100769.81;105879;1278;138989;-73
2022/03/21 08:30:27;;;;;;;27.40;15.80;;;;;;;4.64;42.81;100768.89;106024;1277;25378;-73
2022/03/21 08:32:53;;;;;;;29.60;16.80;;;;;;;4.78;42.32;100767.09;106147;1278;22557;-74
2022/03/21 08:35:20;;;;;;;30.20;15.40;;;;;;;4.91;41.89;100763.89;105904;1278;137728;-74
2022/03/21 08:37:47;;;;;;;29.20;14.40;;;;;;;5.06;41.74;100761.70;106101;1277;24238;-74
2022/03/21 08:40:14;;;;;;;28.90;15.70;;;;;;;5.19;41.19;100756.98;105801;1277;137863;-74
2022/03/21 08:42:41;;;;;;;32.00;17.40;;;;;;;5.31;40.93;100759.58;105749;1280;22573;-74
2022/03/21 08:45:08;;;;;;;30.00;15.20;;;;;;;5.41;40.48;100754.58;105960;1277;22597;-75
2022/03/21 08:47:35;;;;;;;29.70;14.80;;;;;;;5.52;40.31;100753.84;105764;1280;137786;-75
2022/03/21 08:50:03;;;;;;;23.10;13.60;;;;;;;5.64;40.02;100750.61;106581;1277;22573;-75
2022/03/21 08:52:30;;;;;;;26.40;14.30;;;;;;;5.80;39.51;100747.35;106447;1277;138363;-76
2022/03/21 08:54:57;;;;;;;24.40;13.30;;;;;;;5.94;39.16;100743.98;106865;1275;24357;-75
2022/03/21 08:57:23;;;;;;;24.60;14.20;;;;;;;6.07;38.91;100741.74;106849;1277;25481;-76
2022/03/21 08:59:52;;;;;;;27.60;15.00;;;;;;;6.19;38.80;100742.33;106117;1278;137653;-76
2022/03/21 09:02:20;;;;;;;24.60;13.10;;;;;;;6.30;39.03;100745.49;106450;1277;23766;-76
2022/03/21 09:05:01;;;;;;;23.30;11.90;;;;;;;6.46;37.78;100748.73;106253;1277;137705;-76
2022/03/21 09:07:27;;;;;;;22.80;13.70;;;;;;;6.57;37.90;100747.53;106065;1278;23281;-76
2022/03/21 09:09:53;;;;;;;23.90;12.90;;;;;;;6.70;37.80;100747.99;106458;1277;137902;-75
2022/03/21 09:12:20;;;;;;;25.30;13.80;;;;;;;6.83;38.53;100745.85;106534;1277;24248;-76
2022/03/21 09:14:46;;;;;;;25.60;13.10;;;;;;;7.03;38.37;100750.04;106376;1277;22679;-74
2022/03/21 09:17:13;;;;;;;20.40;12.60;;;;;;;7.17;36.77;100743.83;106960;1278;137842;-74
2022/03/21 09:19:40;;;;;;;22.00;12.40;;;;;;;7.28;36.90;100743.95;106393;1278;22581;-74
2022/03/21 09:22:06;;;;;;;25.60;13.10;;;;;;;7.40;36.92;100744.10;106388;1280;137834;-74
2022/03/21 09:24:47;;;;;;;20.30;11.90;;;;;;;7.54;36.97;100737.69;106396;1277;22567;-74
2022/03/21 09:27:14;;;;;;;22.40;11.30;;;;;;;7.68;36.78;100738.31;106549;1277;23996;-73
2022/03/21 09:29:40;;;;;;;22.30;12.50;;;;;;;7.82;36.11;100740.73;106063;1277;137999;-74
2022/03/21 09:32:07;;;;;;;21.50;11.60;;;;;;;7.94;35.77;100738.98;106538;1277;22563;-74
2022/03/21 09:34:39;;;;;;;22.30;12.70;;;;;;;8.05;35.57;100736.92;105995;1277;138145;-73
2022/03/21 09:37:06;;;;;;;24.80;12.40;;;;;;;8.13;35.24;100728.90;106432;1280;22556;-73
2022/03/21 09:39:33;;;;;;;20.80;12.30;;;;;;;8.24;35.39;100728.40;106228;1280;25502;-73
2022/03/21 09:42:01;;;;;;;18.20;10.50;;;;;;;8.36;35.14;100724.54;106611;1278;137817;-73
2022/03/21 09:44:28;;;;;;;20.10;11.80;;;;;;;8.47;34.44;100727.08;106475;1277;24139;-72
2022/03/21 09:46:56;;;;;;;22.80;12.40;;;;;;;8.57;34.40;100723.83;106627;1277;137836;-75
2022/03/21 09:49:30;;;;;;;18.90;10.80;;;;;;;8.67;34.37;100721.77;106223;1277;22681;-73
2022/03/21 09:51:59;;;;;;;21.50;11.10;;;;;;;8.79;34.45;100714.59;106207;1277;138094;-73
2022/03/21 09:54:25;;;;;;;18.80;11.30;;;;;;;8.92;34.43;100717.60;106119;1279;24234;-75
2022/03/21 09:56:51;;;;;;;19.70;11.90;;;;;;;9.03;34.41;100717.61;106275;1278;26522;-73
2022/03/21 09:59:18;;;;;;;20.70;12.80;;;;;;;9.13;33.83;100711.90;105700;1280;137961;-73
2022/03/21 10:01:45;;;;;;;24.20;11.80;;;;;;;9.22;33.54;100714.90;105848;1280;24260;-73
2022/03/21 10:04:11;;;;;;;23.50;11.70;;;;;;;9.29;33.55;100712.70;105843;1277;139219;-73
2022/03/21 10:06:43;;;;;;;19.10;10.80;;;;;;;9.37;33.11;100709.48;105841;1280;22854;-73
2022/03/21 10:09:16;;;;;;;17.50;12.10;;;;;;;9.44;32.88;100704.10;106008;1278;25317;-72
2022/03/21 10:12:03;;;;;;;17.00;10.10;;;;;;;9.55;32.51;100705.17;105973;1278;137838;-72
2022/03/21 10:14:36;;;;;;;22.90;13.50;;;;;;;9.66;32.66;100696.45;106268;1278;22569;-72
2022/03/21 10:17:05;;;;;;;20.60;11.80;;;;;;;9.76;32.35;100694.90;105943;1278;137892;-72
2022/03/21 10:19:50;;;;;;;23.40;12.60;;;;;;;9.84;32.13;100695.36;106425;1277;24377;-72
2022/03/21 10:22:22;;;;;;;20.50;11.50;;;;;;;9.94;32.71;100691.08;105720;1277;138035;-72
2022/03/21 10:25:08;;;;;;;22.30;12.40;;;;;;;10.06;32.13;100685.48;106150;1278;24286;-72
2022/03/21 10:27:40;;;;;;;19.40;11.00;;;;;;;10.14;31.34;100680.14;106075;1280;25339;-72
2022/03/21 10:30:16;;;;;;;18.80;11.80;;;;;;;10.22;31.28;100675.45;106073;1277;138014;-73
2022/03/21 10:32:59;;;;;;;19.20;12.00;;;;;;;10.36;31.49;100675.87;106095;1278;23301;-73
2022/03/21 10:35:28;;;;;;;17.80;11.40;;;;;;;10.46;31.27;100668.13;105761;1278;138138;-73
2022/03/21 10:38:00;;;;;;;23.40;12.20;;;;;;;10.54;31.12;100668.19;105933;1280;23088;-73
2022/03/21 10:40:33;;;;;;;20.00;12.30;;;;;;;10.61;30.90;100668.40;105868;1279;138208;-73
2022/03/21 10:43:16;;;;;;;19.00;11.80;;;;;;;10.68;30.92;100669.88;105879;1280;25381;-73
2022/03/21 10:45:46;;;;;;;19.70;11.80;;;;;;;10.75;30.91;100665.38;106264;1277;25505;-73
2022/03/21 10:48:17;;;;;;;16.70;11.60;;;;;;;10.82;30.88;100656.86;106178;1278;138536;-73
2022/03/21 10:50:49;;;;;;;17.40;10.80;;;;;;;10.89;30.34;100656.23;106101;1280;25330;-73
2022/03/21 10:53:17;;;;;;;20.10;11.20;;;;;;;10.96;30.12;100652.65;105929;1279;139248;-73
2022/03/21 10:55:47;;;;;;;20.00;11.10;;;;;;;11.01;29.47;100652.33;106118;1280;22498;-73
2022/03/21 10:58:16;;;;;;;15.70;10.10;;;;;;;11.05;29.41;100651.67;106018;1279;138342;-73
2022/03/21 11:00:43;;;;;;;18.70;11.10;;;;;;;11.07;29.44;100647.70;105991;1280;22559;-73
2022/03/21 11:03:16;;;;;;;16.90;10.40;;;;;;;11.13;29.35;100638.32;105963;1279;24380;-73
2022/03/21 11:05:45;;;;;;;16.30;10.20;;;;;;;11.22;29.12;100640.04;106116;1280;138106;-73
2022/03/21 11:08:15;;;;;;;19.10;11.40;;;;;;;11.32;28.93;100634.42;105975;1278;22577;-73
2022/03/21 11:10:44;;;;;;;12.80;9.10;;;;;;;11.41;29.53;100633.92;105676;1280;138345;-73
2022/03/21 11:13:11;;;;;;;15.00;10.30;;;;;;;11.52;29.07;100630.02;105669;1280;22570;-73
2022/03/21 11:15:40;;;;;;;16.30;10.60;;;;;;;11.61;28.70;100631.77;105714;1278;22669;-73
2022/03/21 11:18:08;;;;;;;19.30;12.30;;;;;;;11.69;29.13;100626.73;105532;1280;138426;-72
2022/03/21 11:20:34;;;;;;;20.00;12.70;;;;;;;11.76;28.72;100622.30;105735;1280;25693;-73
2022/03/21 11:23:02;;;;;;;18.60;11.40;;;;;;;11.82;28.33;100619.19;105888;1278;137908;-73
2022/03/21 11:25:32;;;;;;;17.60;11.30;;;;;;;11.89;29.16;100614.55;106028;1277;22606;-73
2022/03/21 11:28:07;;;;;;;;;;;;;;;11.98;28.31;100613.60;105755;1278;138349;-73